Time;durP1;ratioP1;P1;durP2;ratioP2;P2;SDS_P1;SDS_P2;PMS_P1;PMS_P2;Temp;Humidity;BMP_temperature;BMP_pressure;BME280_temperature;BME280_humidity;BME280_pressure;Samples;Min_cycle;Max_cycle;Signal;HPM_P1;HPM_P2
2023/01/30 00:01:32;;;;;;;41.17;34.90;;;6.40;99.90;;;;;;5131358;27;20043;-74
2023/01/30 00:03:58;;;;;;;40.03;34.78;;;6.50;99.90;;;;;;5115736;27;20498;-76
2023/01/30 00:06:24;;;;;;;38.20;34.08;;;6.40;99.90;;;;;;5131311;27;20051;-75
2023/01/30 00:08:51;;;;;;;39.92;34.60;;;6.40;99.90;;;;;;5112726;27;20047;-75
2023/01/30 00:11:18;;;;;;;39.25;34.60;;;6.50;99.90;;;;;;5112025;27;20520;-73
2023/01/30 00:13:45;;;;;;;36.95;32.83;;;6.40;99.90;;;;;;5125146;27;20050;-76
2023/01/30 00:16:11;;;;;;;38.17;32.25;;;6.40;99.90;;;;;;5128026;27;20041;-75
2023/01/30 00:18:38;;;;;;;39.47;33.25;;;6.50;99.90;;;;;;5112226;27;20050;-73
2023/01/30 00:21:06;;;;;;;38.83;32.80;;;6.50;99.90;;;;;;5142792;27;20643;-73
2023/01/30 00:23:34;;;;;;;39.33;33.42;;;6.50;99.90;;;;;;5133423;27;20043;-73
2023/01/30 00:26:00;;;;;;;37.67;31.13;;;6.50;99.90;;;;;;5127499;27;20067;-72
2023/01/30 00:28:26;;;;;;;36.13;31.25;;;6.60;99.90;;;;;;5133548;27;20047;-73
2023/01/30 00:30:56;;;;;;;36.22;31.27;;;6.60;99.90;;;;;;5128496;27;20552;-73
2023/01/30 00:33:24;;;;;;;36.22;30.27;;;6.70;99.90;;;;;;5114159;27;20046;-73
2023/01/30 00:35:52;;;;;;;34.47;29.15;;;6.60;99.90;;;;;;5130249;27;20039;-73
2023/01/30 00:38:18;;;;;;;37.60;30.63;;;6.70;99.90;;;;;;5129196;27;20039;-72
2023/01/30 00:40:45;;;;;;;36.97;29.40;;;6.70;99.90;;;;;;5128376;27;20062;-73
2023/01/30 00:48:43;;;;;;;30.92;25.10;;;6.70;99.90;;;;;;5119165;27;20047;-72
2023/01/30 00:51:09;;;;;;;27.58;22.27;;;6.80;99.90;;;;;;5128845;27;20104;-73
2023/01/30 00:53:35;;;;;;;28.05;23.85;;;6.80;99.90;;;;;;5109867;27;20039;-73
2023/01/30 00:56:01;;;;;;;29.30;20.88;;;6.80;99.90;;;;;;5129612;27;20039;-72
2023/01/30 00:58:26;;;;;;;25.60;20.98;;;6.90;99.90;;;;;;5110958;27;20521;-73
2023/01/30 01:00:53;;;;;;;24.83;18.25;;;6.90;99.90;;;;;;5081907;27;20045;-73
2023/01/30 01:03:19;;;;;;;24.20;18.63;;;7.00;99.90;;;;;;5128493;27;20047;-73
2023/01/30 01:05:45;;;;;;;27.67;18.02;;;7.00;99.90;;;;;;5114389;27;20039;-73
2023/01/30 01:08:11;;;;;;;28.55;17.90;;;7.10;99.90;;;;;;5131660;27;20305;-72
2023/01/30 01:10:37;;;;;;;30.60;19.77;;;7.10;99.90;;;;;;5111586;27;20050;-76
2023/01/30 01:13:03;;;;;;;26.08;19.83;;;7.10;99.90;;;;;;5111587;27;20039;-76
2023/01/30 01:15:29;;;;;;;28.98;19.08;;;7.00;99.90;;;;;;5128356;27;20548;-76
2023/01/30 01:17:55;;;;;;;31.92;20.00;;;7.00;99.90;;;;;;5129444;27;20102;-76
2023/01/30 01:20:21;;;;;;;28.27;20.55;;;7.00;99.90;;;;;;5116555;27;20050;-73
2023/01/30 01:22:52;;;;;;;29.92;20.42;;;7.00;99.90;;;;;;5126742;27;20043;-74
2023/01/30 01:25:18;;;;;;;29.25;20.55;;;7.00;99.90;;;;;;5126244;27;20465;-73
2023/01/30 01:27:45;;;;;;;25.17;18.45;;;6.90;99.90;;;;;;5108506;27;20133;-73
2023/01/30 01:30:11;;;;;;;30.27;20.95;;;6.90;99.90;;;;;;5125814;27;20570;-73
2023/01/30 01:32:37;;;;;;;29.33;20.85;;;6.90;99.90;;;;;;5109998;27;20047;-72
2023/01/30 01:35:04;;;;;;;28.98;20.02;;;6.80;99.90;;;;;;5128820;27;20065;-73
2023/01/30 01:37:30;;;;;;;29.58;19.30;;;6.90;99.90;;;;;;5096966;27;20046;-72
2023/01/30 01:42:44;;;;;;;26.75;18.35;;;6.80;99.90;;;;;;5130170;27;20047;-73
2023/01/30 01:45:13;;;;;;;24.40;15.13;;;6.90;99.90;;;;;;5128896;27;20049;-73
2023/01/30 01:47:59;;;;;;;25.65;16.42;;;6.80;99.90;;;;;;5106764;27;20054;-73
2023/01/30 01:50:39;;;;;;;29.25;17.02;;;6.90;99.90;;;;;;5127747;27;20636;-72
2023/01/30 01:53:11;;;;;;;21.63;14.55;;;6.90;99.90;;;;;;5112933;27;20058;-72
2023/01/30 01:55:41;;;;;;;20.70;13.43;;;6.90;99.90;;;;;;5130291;27;20049;-73
2023/01/30 01:58:13;;;;;;;20.30;12.73;;;6.90;99.90;;;;;;5084241;27;20030;-72
2023/01/30 02:00:39;;;;;;;16.10;10.93;;;6.90;99.90;;;;;;5129097;27;20544;-74
2023/01/30 02:03:17;;;;;;;15.57;9.95;;;6.90;99.90;;;;;;5127964;27;20035;-74
2023/01/30 02:05:46;;;;;;;18.98;10.35;;;6.90;99.90;;;;;;5126900;27;20967;-74
2023/01/30 02:08:29;;;;;;;13.88;9.50;;;6.90;99.90;;;;;;5130446;27;20034;-74
2023/01/30 02:11:07;;;;;;;13.77;9.52;;;6.90;99.90;;;;;;5127448;27;20050;-74
2023/01/30 02:13:33;;;;;;;17.48;10.88;;;7.00;99.90;;;;;;5127456;27;20042;-74
2023/01/30 02:16:01;;;;;;;18.10;10.27;;;7.00;99.90;;;;;;5114922;27;20058;-71
2023/01/30 02:18:30;;;;;;;14.43;8.98;;;7.00;99.90;;;;;;5096675;27;20039;-74
2023/01/30 02:21:01;;;;;;;20.23;11.07;;;7.00;99.90;;;;;;5116940;27;20125;-74
2023/01/30 02:23:49;;;;;;;16.98;10.60;;;7.00;99.90;;;;;;5110924;27;20087;-73
2023/01/30 02:26:43;;;;;;;18.60;10.93;;;7.00;99.90;;;;;;5108996;27;20035;-74
2023/01/30 02:29:30;;;;;;;17.05;9.50;;;7.00;99.90;;;;;;5135806;27;20042;-74
2023/01/30 02:32:18;;;;;;;14.90;8.90;;;7.00;99.90;;;;;;5106507;27;20378;-74
2023/01/30 02:34:55;;;;;;;17.90;9.20;;;7.00;99.90;;;;;;5124391;27;20099;-73
2023/01/30 02:37:52;;;;;;;16.55;9.57;;;7.00;99.90;;;;;;5132106;27;20042;-74
2023/01/30 02:40:49;;;;;;;17.67;10.02;;;7.00;99.90;;;;;;5125138;27;20054;-74
2023/01/30 02:43:19;;;;;;;14.90;9.48;;;7.10;99.90;;;;;;5129607;27;20598;-73
2023/01/30 02:46:04;;;;;;;19.80;11.05;;;7.10;99.90;;;;;;5111987;27;20065;-74
2023/01/30 02:48:42;;;;;;;18.83;10.50;;;7.10;99.90;;;;;;5109536;27;20042;-73
2023/01/30 02:51:21;;;;;;;18.23;10.60;;;7.10;99.90;;;;;;5131146;27;20043;-73
2023/01/30 02:53:48;;;;;;;25.30;11.38;;;7.10;99.90;;;;;;5121836;27;20158;-74
2023/01/30 02:56:14;;;;;;;21.67;11.52;;;7.10;99.90;;;;;;5130696;27;20058;-73
2023/01/30 02:58:47;;;;;;;22.35;11.25;;;7.10;99.90;;;;;;5110982;27;20054;-74
2023/01/30 03:01:28;;;;;;;24.92;10.90;;;7.10;99.90;;;;;;5122463;27;20442;-75
2023/01/30 03:04:17;;;;;;;24.52;10.02;;;7.20;99.90;;;;;;5134140;27;20036;-73
2023/01/30 03:07:22;;;;;;;22.67;11.00;;;7.20;99.90;;;;;;5126939;27;20055;-73
2023/01/30 03:09:59;;;;;;;21.25;10.07;;;7.20;99.90;;;;;;5096973;27;20469;-74
2023/01/30 03:12:40;;;;;;;22.52;12.27;;;7.20;99.90;;;;;;5117342;28;20085;-73
2023/01/30 03:15:20;;;;;;;24.40;10.25;;;7.20;99.90;;;;;;5131027;27;20362;-73
2023/01/30 03:17:47;;;;;;;18.60;8.77;;;7.30;99.90;;;;;;5134249;27;20095;-74
2023/01/30 03:20:15;;;;;;;27.00;10.85;;;7.30;99.90;;;;;;5103928;28;20046;-74
2023/01/30 03:22:44;;;;;;;24.48;9.77;;;7.30;99.90;;;;;;5123454;27;20078;-74
2023/01/30 03:25:19;;;;;;;23.92;10.25;;;7.30;99.90;;;;;;5090339;28;20167;-74
2023/01/30 03:27:46;;;;;;;16.80;8.00;;;7.30;99.90;;;;;;5129666;27;20046;-81
2023/01/30 03:30:12;;;;;;;22.15;9.40;;;7.30;99.90;;;;;;5110565;27;20094;-73
2023/01/30 03:32:38;;;;;;;17.60;8.10;;;7.30;99.90;;;;;;5129830;27;20038;-74
2023/01/30 03:35:08;;;;;;;19.13;7.75;;;7.30;99.90;;;;;;5122711;28;20054;-74
2023/01/30 03:37:34;;;;;;;17.75;6.93;;;7.30;99.90;;;;;;5128074;27;20121;-75
2023/01/30 03:40:00;;;;;;;24.70;6.88;;;7.40;99.90;;;;;;5136966;27;20031;-74
2023/01/30 03:42:26;;;;;;;20.38;6.47;;;7.40;99.90;;;;;;5119832;27;20035;-74
2023/01/30 03:44:51;;;;;;;21.63;6.53;;;7.40;99.90;;;;;;5093719;27;20055;-77
2023/01/30 03:47:17;;;;;;;22.27;7.38;;;7.40;99.90;;;;;;5129417;27;20045;-75
2023/01/30 03:49:43;;;;;;;18.23;6.40;;;7.40;99.90;;;;;;5117481;27;20135;-78
2023/01/30 03:52:09;;;;;;;19.90;6.57;;;7.40;99.90;;;;;;5129519;27;20508;-74
2023/01/30 03:54:37;;;;;;;22.00;7.10;;;7.40;99.90;;;;;;5113415;27;20118;-73
2023/01/30 03:57:03;;;;;;;23.58;6.82;;;7.40;99.90;;;;;;5122410;27;20039;-73
2023/01/30 03:59:29;;;;;;;22.42;7.60;;;7.40;99.90;;;;;;5131950;27;20718;-72
2023/01/30 04:01:55;;;;;;;24.23;7.00;;;7.30;99.90;;;;;;5126112;27;20390;-73
2023/01/30 04:04:21;;;;;;;23.20;6.55;;;7.30;99.90;;;;;;5139561;27;20556;-78
2023/01/30 04:06:47;;;;;;;25.23;7.28;;;7.40;99.90;;;;;;5121912;27;20054;-77
2023/01/30 04:09:13;;;;;;;26.52;8.10;;;7.30;99.90;;;;;;5105819;27;20663;-77
2023/01/30 04:11:38;;;;;;;22.88;7.65;;;7.30;99.90;;;;;;5125355;27;20520;-77
2023/01/30 04:14:07;;;;;;;23.42;7.22;;;7.30;99.90;;;;;;5121153;27;20079;-77
2023/01/30 04:16:33;;;;;;;23.05;7.97;;;7.30;99.90;;;;;;5105318;27;20115;-78
2023/01/30 04:18:59;;;;;;;17.58;5.40;;;7.30;99.90;;;;;;5105607;27;20493;-78
2023/01/30 04:21:24;;;;;;;22.77;6.60;;;7.30;99.90;;;;;;5112907;27;20035;-76
2023/01/30 04:23:50;;;;;;;22.17;6.70;;;7.30;99.90;;;;;;5118031;27;20099;-79
2023/01/30 04:26:16;;;;;;;22.92;6.28;;;7.20;99.90;;;;;;5098480;27;20039;-78
2023/01/30 04:28:43;;;;;;;25.27;7.30;;;7.20;99.90;;;;;;5103746;27;20043;-77
2023/01/30 04:31:09;;;;;;;24.85;6.55;;;7.10;99.90;;;;;;5120871;27;20041;-78
2023/01/30 04:33:35;;;;;;;21.65;6.10;;;7.10;99.90;;;;;;5101868;27;20704;-77
2023/01/30 04:36:03;;;;;;;21.75;6.13;;;7.10;99.90;;;;;;5126726;27;20406;-77
2023/01/30 04:38:30;;;;;;;19.52;6.13;;;7.00;99.90;;;;;;5112011;27;20047;-77
2023/01/30 04:40:57;;;;;;;16.95;4.90;;;6.90;99.90;;;;;;5127258;27;20043;-77
2023/01/30 04:43:24;;;;;;;17.75;5.47;;;7.00;99.90;;;;;;5139912;27;20197;-79
2023/01/30 04:45:51;;;;;;;18.55;5.18;;;6.90;99.90;;;;;;5132533;27;20450;-78
2023/01/30 04:48:18;;;;;;;22.52;5.45;;;6.90;99.90;;;;;;5125408;27;20125;-73
2023/01/30 04:50:47;;;;;;;19.95;5.20;;;6.90;99.90;;;;;;5126071;27;20054;-74
2023/01/30 04:53:13;;;;;;;20.20;5.68;;;6.90;99.90;;;;;;5134936;27;20114;-73
2023/01/30 04:55:39;;;;;;;24.27;5.72;;;6.90;99.90;;;;;;5132519;27;20035;-73
2023/01/30 04:58:05;;;;;;;26.67;6.72;;;6.90;99.90;;;;;;5140464;27;20601;-73
2023/01/30 05:00:31;;;;;;;19.70;6.18;;;6.90;99.90;;;;;;5103741;27;20143;-73
2023/01/30 05:02:56;;;;;;;23.40;5.97;;;6.90;99.90;;;;;;5099009;27;20150;-74
2023/01/30 05:05:24;;;;;;;20.63;6.25;;;6.80;99.90;;;;;;5097993;27;20766;-73
2023/01/30 05:07:53;;;;;;;23.88;6.13;;;6.80;99.90;;;;;;5111209;27;20043;-73
2023/01/30 05:10:19;;;;;;;21.90;6.07;;;6.80;99.90;;;;;;5132195;27;20091;-73
2023/01/30 05:12:45;;;;;;;23.23;6.30;;;6.70;99.90;;;;;;5134143;27;20456;-74
2023/01/30 05:15:12;;;;;;;24.20;6.25;;;6.70;99.90;;;;;;5135008;27;20125;-75
2023/01/30 05:17:38;;;;;;;26.70;5.85;;;6.70;99.90;;;;;;5127362;27;20046;-72
2023/01/30 05:20:06;;;;;;;21.13;5.38;;;6.70;99.90;;;;;;5122501;27;20035;-73
2023/01/30 05:22:31;;;;;;;25.10;5.93;;;6.70;99.90;;;;;;5114918;27;20032;-73
2023/01/30 05:24:57;;;;;;;27.05;6.35;;;6.70;99.90;;;;;;5141410;27;20039;-75
2023/01/30 05:27:23;;;;;;;21.27;5.38;;;6.70;99.90;;;;;;5124449;27;20540;-72
2023/01/30 05:29:49;;;;;;;20.95;5.80;;;6.70;99.90;;;;;;5102349;27;20054;-73
2023/01/30 05:32:16;;;;;;;22.17;5.63;;;6.70;99.90;;;;;;5092915;27;20043;-73
2023/01/30 05:34:42;;;;;;;22.45;6.47;;;6.60;99.90;;;;;;5131746;27;20563;-73
2023/01/30 05:37:08;;;;;;;21.92;5.43;;;6.60;99.90;;;;;;5127451;27;20042;-73
2023/01/30 05:39:34;;;;;;;24.52;5.43;;;6.60;99.90;;;;;;5121637;27;20046;-73
2023/01/30 05:42:00;;;;;;;25.70;5.63;;;6.60;99.90;;;;;;5121836;27;20038;-73
2023/01/30 05:44:26;;;;;;;24.85;6.00;;;6.60;99.90;;;;;;5105823;27;20037;-73
2023/01/30 05:46:52;;;;;;;22.55;5.13;;;6.50;99.90;;;;;;5118963;27;20513;-77
2023/01/30 05:49:17;;;;;;;22.30;5.10;;;6.50;99.90;;;;;;5136348;27;20123;-76
2023/01/30 05:51:43;;;;;;;23.48;5.38;;;6.40;99.90;;;;;;5135597;27;20442;-75
2023/01/30 05:54:09;;;;;;;24.45;5.35;;;6.30;99.90;;;;;;5117673;27;20158;-73
2023/01/30 05:56:35;;;;;;;21.77;5.28;;;6.40;99.90;;;;;;5129222;27;20047;-73
2023/01/30 05:59:01;;;;;;;27.55;6.32;;;6.30;99.90;;;;;;5130455;27;20043;-74
2023/01/30 06:01:28;;;;;;;26.67;6.10;;;6.30;99.90;;;;;;5111812;27;20039;-73
2023/01/30 06:03:54;;;;;;;23.55;5.28;;;6.30;99.90;;;;;;5111943;27;20652;-73
2023/01/30 06:06:22;;;;;;;24.45;5.65;;;6.20;99.90;;;;;;5111497;27;20055;-73
2023/01/30 06:08:52;;;;;;;25.88;5.95;;;6.20;99.90;;;;;;5123560;27;20055;-73
2023/01/30 06:11:18;;;;;;;;;;;6.20;99.90;;;;;;5127682;27;20043;-74
2023/01/30 06:13:44;;;;;;;23.38;5.18;;;6.20;99.90;;;;;;5127995;27;20265;-75
2023/01/30 06:16:12;;;;;;;22.75;4.85;;;6.20;99.90;;;;;;5110240;27;20046;-73
2023/01/30 06:18:39;;;;;;;26.95;5.32;;;6.20;99.90;;;;;;5127276;27;20053;-73
2023/01/30 06:21:08;;;;;;;30.60;5.85;;;6.10;99.90;;;;;;5123391;27;20031;-73
2023/01/30 06:23:34;;;;;;;25.95;5.72;;;6.10;99.90;;;;;;5107902;27;20043;-74
2023/01/30 06:26:00;;;;;;;25.58;6.05;;;6.10;99.90;;;;;;5131888;27;20064;-75
2023/01/30 06:28:26;;;;;;;25.73;6.15;;;6.10;99.90;;;;;;5112881;27;20042;-73
2023/01/30 06:30:53;;;;;;;24.35;6.40;;;6.10;99.90;;;;;;5109494;27;20081;-75
2023/01/30 06:33:19;;;;;;;22.30;4.85;;;6.10;99.90;;;;;;5127382;27;20439;-73
2023/01/30 06:35:48;;;;;;;24.73;4.80;;;6.20;99.90;;;;;;5126200;27;20050;-74
2023/01/30 06:38:14;;;;;;;22.02;4.70;;;6.20;99.90;;;;;;5129164;27;20140;-74
2023/01/30 06:40:43;;;;;;;26.08;5.63;;;6.20;99.90;;;;;;5112692;27;20042;-73
2023/01/30 06:43:08;;;;;;;24.90;5.43;;;6.20;99.90;;;;;;5108119;27;20130;-74
2023/01/30 06:45:35;;;;;;;25.63;5.95;;;6.20;99.90;;;;;;5109242;27;20134;-73
2023/01/30 06:48:01;;;;;;;26.92;6.40;;;6.20;99.90;;;;;;5123400;27;20051;-72
2023/01/30 06:54:21;;;;;;;25.10;5.38;;;6.20;99.90;;;;;;5107166;22;20192;31
2023/01/30 06:56:47;;;;;;;20.88;4.82;;;6.20;99.90;;;;;;4975637;28;20041;-73
2023/01/30 06:59:13;;;;;;;24.27;5.70;;;6.30;99.90;;;;;;5000737;28;20069;-73
2023/01/30 07:01:38;;;;;;;25.58;5.10;;;6.20;99.90;;;;;;5013147;28;20407;-72
2023/01/30 07:04:04;;;;;;;21.00;5.18;;;6.30;99.90;;;;;;5020820;28;20133;-74
2023/01/30 07:06:30;;;;;;;22.52;5.00;;;6.20;99.90;;;;;;4993543;28;20057;-73
2023/01/30 07:08:57;;;;;;;22.17;5.03;;;6.20;99.90;;;;;;5008813;28;20775;-74
2023/01/30 07:11:26;;;;;;;24.50;6.00;;;6.20;99.90;;;;;;4982490;28;20045;-74
2023/01/30 07:13:51;;;;;;;20.42;5.22;;;6.20;99.90;;;;;;5026928;28;20056;-73
2023/01/30 07:16:17;;;;;;;30.95;5.38;;;6.20;99.90;;;;;;5006841;28;20041;-75
2023/01/30 07:18:43;;;;;;;23.27;5.95;;;6.30;99.90;;;;;;4987338;28;20491;-73
2023/01/30 07:21:10;;;;;;;25.27;5.80;;;6.30;99.90;;;;;;5012008;28;20049;-75
2023/01/30 07:23:35;;;;;;;22.30;5.35;;;6.20;99.90;;;;;;4979738;28;20098;-73
2023/01/30 07:26:05;;;;;;;29.50;5.93;;;6.20;99.90;;;;;;5017620;28;20056;-74
2023/01/30 07:28:31;;;;;;;27.13;5.97;;;6.20;99.90;;;;;;5009547;28;20075;-74
2023/01/30 07:31:00;;;;;;;29.02;7.15;;;6.20;99.90;;;;;;5032853;28;20123;-74
2023/01/30 07:33:26;;;;;;;26.23;5.20;;;6.20;99.90;;;;;;4992193;28;20039;-73
2023/01/30 07:35:55;;;;;;;30.75;6.32;;;6.20;99.90;;;;;;4997259;28;20246;-74
2023/01/30 07:38:21;;;;;;;21.92;6.07;;;6.30;99.90;;;;;;4982826;28;20430;-74
2023/01/30 07:40:47;;;;;;;18.00;4.95;;;6.20;99.90;;;;;;4980676;28;20059;-74
2023/01/30 07:43:13;;;;;;;25.38;4.95;;;6.20;99.90;;;;;;4995667;28;20203;-74
2023/01/30 07:45:48;;;;;;;22.70;5.72;;;6.20;99.90;;;;;;4993160;28;20312;-74
2023/01/30 07:48:16;;;;;;;23.45;5.82;;;6.20;99.90;;;;;;4997350;28;20102;-74
2023/01/30 07:50:43;;;;;;;21.15;5.15;;;6.30;99.90;;;;;;4997430;28;20547;-77
2023/01/30 07:53:11;;;;;;;28.70;6.47;;;6.30;99.90;;;;;;5013240;28;20041;-73
2023/01/30 07:55:37;;;;;;;24.55;6.60;;;6.30;99.90;;;;;;5028857;28;20060;-76
2023/01/30 07:58:03;;;;;;;24.58;5.97;;;6.40;99.90;;;;;;5011859;28;20057;-74
2023/01/30 08:00:29;;;;;;;30.02;6.63;;;6.40;99.90;;;;;;5006877;28;20191;-76
2023/01/30 08:02:56;;;;;;;27.55;7.07;;;6.40;99.90;;;;;;5010410;28;20240;-75
2023/01/30 08:05:21;;;;;;;30.60;5.90;;;6.40;99.90;;;;;;4996158;28;20044;-75
2023/01/30 08:07:47;;;;;;;27.30;6.15;;;6.40;99.90;;;;;;4979371;28;20056;-75
2023/01/30 08:10:13;;;;;;;26.27;5.97;;;6.40;99.90;;;;;;4991656;28;20499;-75
2023/01/30 08:12:40;;;;;;;28.98;5.93;;;6.50;99.90;;;;;;5013402;28;20135;-76
2023/01/30 08:15:07;;;;;;;23.80;5.00;;;6.50;99.90;;;;;;4994375;28;20047;-76
2023/01/30 08:17:33;;;;;;;34.15;6.95;;;6.50;99.90;;;;;;4991519;28;20044;-74
2023/01/30 08:19:59;;;;;;;24.90;6.22;;;6.50;99.90;;;;;;5008614;28;20053;-74
2023/01/30 08:22:25;;;;;;;20.10;4.55;;;6.50;99.90;;;;;;4979186;28;20392;-74
2023/01/30 08:24:50;;;;;;;27.67;6.03;;;6.60;99.90;;;;;;4993681;28;20048;-74
2023/01/30 08:27:16;;;;;;;20.23;4.63;;;6.60;99.90;;;;;;4995812;28;20057;-73
2023/01/30 08:29:43;;;;;;;30.95;5.85;;;6.60;99.90;;;;;;4978800;28;20544;-74
2023/01/30 08:32:09;;;;;;;29.63;6.85;;;6.70;99.90;;;;;;4995040;28;20057;-72
2023/01/30 08:34:35;;;;;;;26.77;6.13;;;6.70;99.90;;;;;;5011237;28;20148;-72
2023/01/30 08:37:01;;;;;;;25.75;6.03;;;6.70;99.90;;;;;;4981244;28;20432;-72
2023/01/30 08:39:27;;;;;;;27.02;5.95;;;6.70;99.90;;;;;;4994234;28;20048;-71
2023/01/30 08:41:58;;;;;;;22.88;5.80;;;6.70;99.90;;;;;;4996162;28;20053;-73
2023/01/30 08:44:24;;;;;;;27.88;6.43;;;6.80;99.90;;;;;;5010596;28;20563;-73
2023/01/30 08:46:50;;;;;;;26.45;5.97;;;6.80;99.90;;;;;;4994345;28;20049;-72
2023/01/30 08:49:16;;;;;;;25.98;5.50;;;6.70;99.90;;;;;;4994559;28;20091;-75
2023/01/30 08:51:42;;;;;;;25.98;5.63;;;6.80;99.90;;;;;;4963169;28;20049;-72
2023/01/30 08:54:08;;;;;;;26.25;6.20;;;6.80;99.90;;;;;;4978370;28;20514;-74
2023/01/30 08:56:33;;;;;;;27.95;5.88;;;6.80;99.90;;;;;;4960981;28;20049;-73
2023/01/30 08:58:59;;;;;;;23.92;6.05;;;6.80;99.90;;;;;;4976799;28;20137;-75
2023/01/30 09:01:25;;;;;;;27.75;6.80;;;6.90;99.90;;;;;;4954878;28;20454;-75
2023/01/30 09:03:51;;;;;;;27.90;6.97;;;6.80;99.90;;;;;;4957920;28;20053;-74
2023/01/30 09:06:17;;;;;;;30.00;6.32;;;6.80;99.90;;;;;;4995121;28;20049;-73
2023/01/30 09:08:46;;;;;;;25.60;5.90;;;6.80;99.90;;;;;;4964288;28;20053;-73
2023/01/30 09:11:11;;;;;;;27.17;5.68;;;6.80;99.90;;;;;;4980142;28;20132;-73
2023/01/30 09:13:42;;;;;;;20.27;5.40;;;6.80;99.90;;;;;;4961722;28;20048;-73
2023/01/30 09:16:09;;;;;;;;;;;6.80;99.90;;;;;;4991436;28;20053;-72
2023/01/30 09:18:38;;;;;;;28.27;5.75;;;6.80;99.90;;;;;;4986084;28;19964;-82
2023/01/30 09:21:05;;;;;;;26.35;6.55;;;6.80;99.90;;;;;;4973793;28;20127;-76
2023/01/30 09:23:31;;;;;;;26.70;6.38;;;6.90;99.90;;;;;;4987426;28;20041;-77
2023/01/30 09:25:56;;;;;;;25.77;5.55;;;6.90;99.90;;;;;;4976161;28;20126;-79
2023/01/30 09:28:22;;;;;;;26.27;5.68;;;6.90;99.90;;;;;;4980456;28;20075;-77
2023/01/30 09:30:48;;;;;;;30.58;5.85;;;7.00;99.90;;;;;;4974036;28;20473;-76
2023/01/30 09:33:16;;;;;;;25.40;6.55;;;7.00;99.90;;;;;;4990038;28;20052;-78
2023/01/30 09:35:45;;;;;;;25.45;5.93;;;7.10;99.90;;;;;;4959576;28;20068;-76
2023/01/30 09:38:11;;;;;;;22.70;5.80;;;7.10;99.90;;;;;;4979904;28;20105;-76
2023/01/30 09:40:58;;;;;;;29.85;6.70;;;7.10;99.90;;;;;;4977078;28;20041;-76
2023/01/30 09:43:58;;;;;;;21.60;5.57;;;7.20;99.90;;;;;;4994835;28;20103;-76
2023/01/30 09:46:27;;;;;;;30.83;6.33;;;7.30;99.90;;;;;;4993539;28;20033;-78
2023/01/30 09:49:24;;;;;;;24.77;6.15;;;7.40;99.90;;;;;;4980173;28;21195;-76
2023/01/30 09:52:05;;;;;;;25.38;5.78;;;7.40;99.90;;;;;;4947782;28;20061;-76
2023/01/30 09:54:36;;;;;;;25.60;5.55;;;7.40;99.90;;;;;;4979696;28;20060;-76
2023/01/30 09:57:14;;;;;;;25.77;6.07;;;7.40;99.90;;;;;;5005596;28;20077;-77
2023/01/30 09:59:52;;;;;;;26.10;5.50;;;7.40;99.90;;;;;;4995817;28;20048;-81
2023/01/30 10:02:46;;;;;;;24.58;6.10;;;7.30;99.90;;;;;;4985569;28;20045;-79
2023/01/30 10:05:12;;;;;;;25.98;7.00;;;7.40;99.90;;;;;;5013583;28;20126;-80
2023/01/30 10:07:49;;;;;;;21.50;5.53;;;7.40;99.90;;;;;;4993106;28;20049;-77
2023/01/30 10:10:30;;;;;;;22.75;5.55;;;7.40;99.90;;;;;;4994990;28;20048;-77
2023/01/30 10:13:17;;;;;;;24.45;5.65;;;7.50;99.90;;;;;;4996826;28;20498;-83
2023/01/30 10:16:17;;;;;;;24.10;6.35;;;7.50;99.90;;;;;;5007613;28;20562;-79
2023/01/30 10:18:43;;;;;;;;;;;7.50;99.90;;;;;;5014337;28;20047;-77
2023/01/30 10:21:18;;;;;;;28.90;6.30;;;7.50;99.90;;;;;;5025315;28;20306;-78
2023/01/30 10:24:10;;;;;;;25.30;6.47;;;7.60;99.90;;;;;;4989280;28;20043;-77
2023/01/30 10:26:38;;;;;;;26.92;6.20;;;7.60;99.90;;;;;;4974365;28;20053;-77
2023/01/30 10:29:19;;;;;;;22.20;5.82;;;7.70;99.90;;;;;;5008885;28;20080;-79
2023/01/30 10:31:56;;;;;;;28.92;5.63;;;7.70;99.90;;;;;;5019890;28;20046;-78
2023/01/30 10:34:33;;;;;;;22.58;5.43;;;7.80;99.90;;;;;;5002168;28;20045;-76
2023/01/30 10:37:14;;;;;;;26.10;6.03;;;7.80;99.90;;;;;;4993652;28;20226;-81
2023/01/30 10:40:25;;;;;;;24.30;5.88;;;7.80;99.90;;;;;;5003050;28;20096;-79
2023/01/30 10:43:37;;;;;;;23.20;6.07;;;7.80;99.90;;;;;;4995289;28;20152;-77
2023/01/30 10:46:14;;;;;;;25.13;5.68;;;7.90;99.90;;;;;;4922221;28;21292;-76
2023/01/30 10:48:49;;;;;;;22.02;5.22;;;7.90;99.90;;;;;;4926849;28;20039;-79
2023/01/30 10:51:17;;;;;;;27.67;6.18;;;8.00;99.90;;;;;;4982084;28;21396;-76
2023/01/30 10:54:00;;;;;;;21.98;4.82;;;8.10;99.90;;;;;;5012967;28;20796;-77
2023/01/30 10:56:31;;;;;;;23.52;5.88;;;8.20;99.90;;;;;;5024034;28;20060;-79
2023/01/30 10:59:37;;;;;;;24.42;6.75;;;8.20;99.90;;;;;;5000123;28;20040;-79
2023/01/30 11:02:15;;;;;;;22.92;5.45;;;8.20;99.90;;;;;;5008584;28;20093;-80
2023/01/30 11:05:03;;;;;;;12.15;3.72;;;8.10;99.90;;;;;;4996632;28;20041;-78
2023/01/30 11:07:32;;;;;;;22.77;4.85;;;7.70;99.90;;;;;;5016435;28;20270;-80
2023/01/30 11:09:59;;;;;;;21.37;4.77;;;7.30;99.90;;;;;;5007517;28;20087;-79
2023/01/30 11:12:25;;;;;;;18.60;3.92;;;7.00;99.90;;;;;;5013961;28;20369;-80
2023/01/30 11:15:00;;;;;;;23.17;4.85;;;6.80;99.90;;;;;;5016590;28;20164;-80
2023/01/30 11:17:35;;;;;;;23.80;5.30;;;6.70;99.90;;;;;;4993253;28;20500;-79
2023/01/30 11:20:15;;;;;;;21.95;4.30;;;6.60;99.90;;;;;;5009287;28;20558;-79
2023/01/30 11:22:47;;;;;;;18.55;5.38;;;6.50;99.90;;;;;;5031736;28;20063;-79
2023/01/30 11:25:17;;;;;;;21.05;4.82;;;6.60;99.90;;;;;;4996031;28;21005;-80
2023/01/30 11:27:43;;;;;;;22.90;4.97;;;6.70;99.90;;;;;;4999329;28;20354;-78
2023/01/30 11:30:15;;;;;;;17.58;3.97;;;6.80;99.90;;;;;;4981056;28;20040;-77
2023/01/30 11:32:47;;;;;;;16.30;3.53;;;6.80;99.90;;;;;;5010111;28;20590;-80
2023/01/30 11:35:12;;;;;;;18.00;3.65;;;6.90;99.90;;;;;;5000567;28;20589;-79
2023/01/30 11:37:43;;;;;;;14.20;3.28;;;6.90;99.90;;;;;;5022947;28;20044;-81
2023/01/30 11:40:24;;;;;;;17.98;4.18;;;7.00;99.90;;;;;;5013239;28;20084;-81
2023/01/30 11:42:58;;;;;;;16.15;4.28;;;7.20;99.90;;;;;;5013032;28;20127;-78
2023/01/30 11:45:25;;;;;;;19.92;4.22;;;7.20;99.90;;;;;;5007464;28;20128;-79
2023/01/30 11:47:57;;;;;;;20.52;4.47;;;7.30;99.90;;;;;;4962225;28;20511;-80
2023/01/30 11:50:29;;;;;;;22.55;4.97;;;7.30;99.90;;;;;;5011699;28;20141;-79
2023/01/30 11:52:58;;;;;;;14.95;3.58;;;7.20;99.90;;;;;;4999954;28;20047;-78
2023/01/30 11:55:24;;;;;;;17.45;3.67;;;7.00;99.90;;;;;;5014702;28;20057;-80
2023/01/30 11:57:53;;;;;;;16.08;3.88;;;6.80;99.90;;;;;;4975250;28;20056;-78
2023/01/30 12:00:28;;;;;;;18.48;3.90;;;6.80;99.90;;;;;;5015901;28;20056;-82
2023/01/30 12:03:01;;;;;;;16.92;3.97;;;6.70;99.90;;;;;;4998061;28;20549;-79
2023/01/30 12:05:33;;;;;;;14.98;3.83;;;6.70;99.90;;;;;;5004083;28;20049;-78
2023/01/30 12:08:26;;;;;;;19.00;4.95;;;6.80;99.90;;;;;;4990596;28;20076;-79
2023/01/30 12:10:56;;;;;;;11.80;2.92;;;6.80;99.90;;;;;;5004460;28;20266;-78
2023/01/30 12:13:42;;;;;;;9.85;2.50;;;6.90;99.90;;;;;;4996848;28;20526;-78
2023/01/30 12:16:18;;;;;;;8.95;1.95;;;7.00;99.90;;;;;;5003809;28;20068;-80
2023/01/30 12:19:10;;;;;;;9.35;2.03;;;7.00;99.90;;;;;;4983523;28;20051;-78
2023/01/30 12:22:09;;;;;;;13.55;2.75;;;7.10;99.90;;;;;;4997913;28;20119;-82
2023/01/30 12:24:42;;;;;;;14.25;3.00;;;7.20;99.90;;;;;;5014566;28;20045;-84
2023/01/30 12:27:24;;;;;;;11.30;2.40;;;7.30;99.90;;;;;;5003370;28;20053;-79
2023/01/30 12:30:20;;;;;;;13.50;2.67;;;7.30;99.90;;;;;;5004775;28;20075;-78
2023/01/30 12:32:45;;;;;;;13.27;3.08;;;7.30;99.90;;;;;;5007021;28;20053;-77
2023/01/30 12:35:16;;;;;;;13.23;2.80;;;7.30;99.90;;;;;;4998066;28;20037;-79
2023/01/30 12:37:42;;;;;;;15.35;2.88;;;7.30;99.90;;;;;;5006165;28;20042;-74
2023/01/30 12:40:27;;;;;;;15.63;3.00;;;7.30;99.90;;;;;;4984102;28;20041;-79
2023/01/30 12:43:18;;;;;;;15.73;3.75;;;7.30;99.90;;;;;;5004076;28;20284;-75
2023/01/30 12:46:07;;;;;;;14.23;3.15;;;7.40;99.90;;;;;;4988386;28;20084;-78
2023/01/30 12:49:00;;;;;;;16.38;3.70;;;7.40;99.90;;;;;;5009612;28;20495;-78
2023/01/30 12:52:02;;;;;;;17.38;3.67;;;7.40;99.90;;;;;;5005412;28;20370;-77
2023/01/30 12:54:35;;;;;;;16.23;2.97;;;7.40;99.90;;;;;;5007046;28;20113;-81
2023/01/30 12:57:25;;;;;;;17.40;3.78;;;7.40;99.90;;;;;;4997822;28;20135;-80
2023/01/30 13:00:04;;;;;;;14.77;3.03;;;7.50;99.90;;;;;;5007103;28;20052;-80
2023/01/30 13:03:02;;;;;;;20.17;4.57;;;7.50;99.90;;;;;;5008481;28;20045;-78
2023/01/30 13:05:55;;;;;;;15.82;3.80;;;7.60;99.90;;;;;;5006508;28;20116;-77
2023/01/30 13:08:27;;;;;;;18.48;4.13;;;7.70;99.90;;;;;;5000442;28;20084;-80
2023/01/30 13:11:11;;;;;;;13.57;3.45;;;7.70;99.90;;;;;;4994287;28;20220;-78
2023/01/30 13:13:43;;;;;;;20.38;4.60;;;7.80;99.90;;;;;;5002661;28;20103;-78
2023/01/30 13:16:27;;;;;;;16.10;3.28;;;7.80;99.90;;;;;;4992213;28;20049;-77
2023/01/30 13:19:07;;;;;;;13.15;3.08;;;7.90;99.90;;;;;;5011479;28;21113;-78